sensor_id;sensor_type;location;lat;lon;timestamp;temperature;humidity
4306;DHT22;2166;49.926;8.608;2024-02-21T00:00:53;7.80;62.50
4306;DHT22;2166;49.926;8.608;2024-02-21T00:03:23;7.80;62.30
4306;DHT22;2166;49.926;8.608;2024-02-21T00:05:51;7.80;61.90
4306;DHT22;2166;49.926;8.608;2024-02-21T00:08:19;7.70;62.00
4306;DHT22;2166;49.926;8.608;2024-02-21T00:10:48;7.80;61.80
4306;DHT22;2166;49.926;8.608;2024-02-21T00:13:16;7.70;61.50
4306;DHT22;2166;49.926;8.608;2024-02-21T00:15:44;7.70;61.30
4306;DHT22;2166;49.926;8.608;2024-02-21T00:18:12;7.70;61.30
4306;DHT22;2166;49.926;8.608;2024-02-21T00:20:42;7.70;61.00
4306;DHT22;2166;49.926;8.608;2024-02-21T00:23:10;7.80;61.40
4306;DHT22;2166;49.926;8.608;2024-02-21T00:25:39;7.80;61.80
4306;DHT22;2166;49.926;8.608;2024-02-21T00:28:07;7.80;61.40
4306;DHT22;2166;49.926;8.608;2024-02-21T00:30:35;7.80;61.30
4306;DHT22;2166;49.926;8.608;2024-02-21T00:33:05;7.80;61.30
4306;DHT22;2166;49.926;8.608;2024-02-21T00:35:33;7.80;61.90
4306;DHT22;2166;49.926;8.608;2024-02-21T00:38:03;7.80;61.90
4306;DHT22;2166;49.926;8.608;2024-02-21T00:40:31;7.80;61.30
4306;DHT22;2166;49.926;8.608;2024-02-21T00:42:59;7.90;61.70
4306;DHT22;2166;49.926;8.608;2024-02-21T00:45:27;7.90;61.90
4306;DHT22;2166;49.926;8.608;2024-02-21T00:47:55;7.90;62.00
4306;DHT22;2166;49.926;8.608;2024-02-21T00:50:24;8.00;62.10
4306;DHT22;2166;49.926;8.608;2024-02-21T00:52:52;8.00;62.60
4306;DHT22;2166;49.926;8.608;2024-02-21T00:55:22;8.00;63.50
4306;DHT22;2166;49.926;8.608;2024-02-21T00:57:50;8.00;63.60
4306;DHT22;2166;49.926;8.608;2024-02-21T01:00:19;7.90;63.40
4306;DHT22;2166;49.926;8.608;2024-02-21T01:02:47;7.90;63.30
4306;DHT22;2166;49.926;8.608;2024-02-21T01:05:19;7.80;63.30
4306;DHT22;2166;49.926;8.608;2024-02-21T01:07:49;7.80;62.70
4306;DHT22;2166;49.926;8.608;2024-02-21T01:10:17;7.70;62.70
4306;DHT22;2166;49.926;8.608;2024-02-21T01:12:47;7.60;62.40
4306;DHT22;2166;49.926;8.608;2024-02-21T01:15:15;7.60;62.10
4306;DHT22;2166;49.926;8.608;2024-02-21T01:17:44;7.60;62.10
4306;DHT22;2166;49.926;8.608;2024-02-21T01:20:12;7.60;61.80
4306;DHT22;2166;49.926;8.608;2024-02-21T01:22:41;7.60;62.00
4306;DHT22;2166;49.926;8.608;2024-02-21T01:25:09;7.70;62.00
4306;DHT22;2166;49.926;8.608;2024-02-21T01:27:38;7.70;62.20
4306;DHT22;2166;49.926;8.608;2024-02-21T01:30:08;7.80;62.80
4306;DHT22;2166;49.926;8.608;2024-02-21T01:32:37;7.90;63.30
4306;DHT22;2166;49.926;8.608;2024-02-21T01:35:07;7.90;63.70
4306;DHT22;2166;49.926;8.608;2024-02-21T01:37:35;7.90;63.70
4306;DHT22;2166;49.926;8.608;2024-02-21T01:40:05;7.90;63.60
4306;DHT22;2166;49.926;8.608;2024-02-21T01:42:35;7.90;63.40
4306;DHT22;2166;49.926;8.608;2024-02-21T01:45:07;7.90;63.20
4306;DHT22;2166;49.926;8.608;2024-02-21T01:47:37;7.80;63.00
4306;DHT22;2166;49.926;8.608;2024-02-21T01:50:06;7.80;62.40
4306;DHT22;2166;49.926;8.608;2024-02-21T01:52:35;7.70;61.80
4306;DHT22;2166;49.926;8.608;2024-02-21T01:55:04;7.70;61.60
4306;DHT22;2166;49.926;8.608;2024-02-21T01:57:34;7.70;62.00
4306;DHT22;2166;49.926;8.608;2024-02-21T02:00:04;7.70;61.70
4306;DHT22;2166;49.926;8.608;2024-02-21T02:02:38;7.70;61.80
4306;DHT22;2166;49.926;8.608;2024-02-21T02:05:07;7.60;61.40
4306;DHT22;2166;49.926;8.608;2024-02-21T02:07:36;7.60;61.20
4306;DHT22;2166;49.926;8.608;2024-02-21T02:10:06;7.60;61.30
4306;DHT22;2166;49.926;8.608;2024-02-21T02:12:34;7.50;61.20
4306;DHT22;2166;49.926;8.608;2024-02-21T02:15:03;7.50;60.80
4306;DHT22;2166;49.926;8.608;2024-02-21T02:17:32;7.40;60.50
4306;DHT22;2166;49.926;8.608;2024-02-21T02:20:01;7.40;60.40
4306;DHT22;2166;49.926;8.608;2024-02-21T02:22:32;7.40;60.20
4306;DHT22;2166;49.926;8.608;2024-02-21T02:25:04;7.40;60.10
4306;DHT22;2166;49.926;8.608;2024-02-21T02:27:33;7.40;60.30
4306;DHT22;2166;49.926;8.608;2024-02-21T02:30:01;7.40;60.20
4306;DHT22;2166;49.926;8.608;2024-02-21T02:32:29;7.40;60.20
4306;DHT22;2166;49.926;8.608;2024-02-21T02:34:58;7.40;59.90
4306;DHT22;2166;49.926;8.608;2024-02-21T02:37:26;7.40;60.20
4306;DHT22;2166;49.926;8.608;2024-02-21T02:39:54;7.30;60.00
4306;DHT22;2166;49.926;8.608;2024-02-21T02:42:24;7.20;59.70
4306;DHT22;2166;49.926;8.608;2024-02-21T02:44:52;7.20;59.50
4306;DHT22;2166;49.926;8.608;2024-02-21T02:47:20;7.20;59.30
4306;DHT22;2166;49.926;8.608;2024-02-21T02:49:49;7.20;59.10
4306;DHT22;2166;49.926;8.608;2024-02-21T02:52:18;7.10;58.90
4306;DHT22;2166;49.926;8.608;2024-02-21T02:54:46;7.10;58.30
4306;DHT22;2166;49.926;8.608;2024-02-21T02:57:18;7.00;58.10
4306;DHT22;2166;49.926;8.608;2024-02-21T02:59:49;7.00;57.50
4306;DHT22;2166;49.926;8.608;2024-02-21T03:02:17;7.00;57.20
4306;DHT22;2166;49.926;8.608;2024-02-21T03:04:45;7.00;57.20
4306;DHT22;2166;49.926;8.608;2024-02-21T03:07:14;7.00;57.20
4306;DHT22;2166;49.926;8.608;2024-02-21T03:09:42;7.10;57.80
4306;DHT22;2166;49.926;8.608;2024-02-21T03:12:11;7.10;58.00
4306;DHT22;2166;49.926;8.608;2024-02-21T03:14:39;7.10;58.50
4306;DHT22;2166;49.926;8.608;2024-02-21T03:17:08;7.00;58.10
4306;DHT22;2166;49.926;8.608;2024-02-21T03:19:37;6.90;57.50
4306;DHT22;2166;49.926;8.608;2024-02-21T03:22:07;6.90;57.40
4306;DHT22;2166;49.926;8.608;2024-02-21T03:24:35;6.80;57.20
4306;DHT22;2166;49.926;8.608;2024-02-21T03:27:04;6.80;56.80
4306;DHT22;2166;49.926;8.608;2024-02-21T03:29:32;6.70;56.60
4306;DHT22;2166;49.926;8.608;2024-02-21T03:32:00;6.70;56.20
4306;DHT22;2166;49.926;8.608;2024-02-21T03:34:30;6.70;56.00
4306;DHT22;2166;49.926;8.608;2024-02-21T03:36:59;6.70;55.70
4306;DHT22;2166;49.926;8.608;2024-02-21T03:39:27;6.60;55.50
4306;DHT22;2166;49.926;8.608;2024-02-21T03:41:58;6.60;55.20
4306;DHT22;2166;49.926;8.608;2024-02-21T03:44:31;6.60;54.90
4306;DHT22;2166;49.926;8.608;2024-02-21T03:47:00;6.60;55.00
4306;DHT22;2166;49.926;8.608;2024-02-21T03:49:29;6.60;54.90
4306;DHT22;2166;49.926;8.608;2024-02-21T03:51:58;6.60;54.70
4306;DHT22;2166;49.926;8.608;2024-02-21T03:54:26;6.60;54.70
4306;DHT22;2166;49.926;8.608;2024-02-21T03:56:54;6.60;54.50
4306;DHT22;2166;49.926;8.608;2024-02-21T03:59:22;6.60;54.30
4306;DHT22;2166;49.926;8.608;2024-02-21T04:01:51;6.60;54.20
4306;DHT22;2166;49.926;8.608;2024-02-21T04:04:20;6.70;54.50
4306;DHT22;2166;49.926;8.608;2024-02-21T04:06:51;6.80;54.80
4306;DHT22;2166;49.926;8.608;2024-02-21T04:09:19;6.90;55.00
4306;DHT22;2166;49.926;8.608;2024-02-21T04:11:47;6.90;55.50
4306;DHT22;2166;49.926;8.608;2024-02-21T04:14:15;7.00;55.90
4306;DHT22;2166;49.926;8.608;2024-02-21T04:16:44;7.00;56.00
4306;DHT22;2166;49.926;8.608;2024-02-21T04:19:12;7.00;56.10
4306;DHT22;2166;49.926;8.608;2024-02-21T04:21:40;7.10;56.40
4306;DHT22;2166;49.926;8.608;2024-02-21T04:24:10;7.10;56.60
4306;DHT22;2166;49.926;8.608;2024-02-21T04:26:38;7.20;56.50
4306;DHT22;2166;49.926;8.608;2024-02-21T04:29:07;7.20;57.10
4306;DHT22;2166;49.926;8.608;2024-02-21T04:31:35;7.20;57.20
4306;DHT22;2166;49.926;8.608;2024-02-21T04:34:05;7.20;57.00
4306;DHT22;2166;49.926;8.608;2024-02-21T04:36:34;7.10;56.90
4306;DHT22;2166;49.926;8.608;2024-02-21T04:39:02;7.10;56.60
4306;DHT22;2166;49.926;8.608;2024-02-21T04:41:32;7.00;56.30
4306;DHT22;2166;49.926;8.608;2024-02-21T04:44:00;6.90;55.80
4306;DHT22;2166;49.926;8.608;2024-02-21T04:46:30;6.80;55.40
4306;DHT22;2166;49.926;8.608;2024-02-21T04:48:58;6.80;54.70
4306;DHT22;2166;49.926;8.608;2024-02-21T04:51:27;6.70;54.10
4306;DHT22;2166;49.926;8.608;2024-02-21T04:53:55;6.70;53.90
4306;DHT22;2166;49.926;8.608;2024-02-21T04:56:23;6.60;53.70
4306;DHT22;2166;49.926;8.608;2024-02-21T04:58:53;6.60;53.30
4306;DHT22;2166;49.926;8.608;2024-02-21T05:01:21;6.60;53.20
4306;DHT22;2166;49.926;8.608;2024-02-21T05:03:49;6.50;53.00
4306;DHT22;2166;49.926;8.608;2024-02-21T05:06:18;6.50;52.80
4306;DHT22;2166;49.926;8.608;2024-02-21T05:08:46;6.50;52.50
4306;DHT22;2166;49.926;8.608;2024-02-21T05:11:15;6.50;52.60
4306;DHT22;2166;49.926;8.608;2024-02-21T05:13:44;6.50;52.80
4306;DHT22;2166;49.926;8.608;2024-02-21T05:16:15;6.60;53.00
4306;DHT22;2166;49.926;8.608;2024-02-21T05:18:44;6.60;53.20
4306;DHT22;2166;49.926;8.608;2024-02-21T05:21:12;6.50;53.50
4306;DHT22;2166;49.926;8.608;2024-02-21T05:23:40;6.50;53.60
4306;DHT22;2166;49.926;8.608;2024-02-21T05:26:09;6.40;53.10
4306;DHT22;2166;49.926;8.608;2024-02-21T05:28:37;6.30;52.70
4306;DHT22;2166;49.926;8.608;2024-02-21T05:31:05;6.30;52.50
4306;DHT22;2166;49.926;8.608;2024-02-21T05:33:35;6.30;52.30
4306;DHT22;2166;49.926;8.608;2024-02-21T05:36:04;6.30;52.20
4306;DHT22;2166;49.926;8.608;2024-02-21T05:38:34;6.40;52.20
4306;DHT22;2166;49.926;8.608;2024-02-21T05:41:02;6.50;52.20
4306;DHT22;2166;49.926;8.608;2024-02-21T05:43:31;6.60;52.40
4306;DHT22;2166;49.926;8.608;2024-02-21T05:45:59;6.60;53.00
4306;DHT22;2166;49.926;8.608;2024-02-21T05:48:27;6.70;53.40
4306;DHT22;2166;49.926;8.608;2024-02-21T05:50:57;6.80;54.00
4306;DHT22;2166;49.926;8.608;2024-02-21T05:53:25;6.90;54.70
4306;DHT22;2166;49.926;8.608;2024-02-21T05:55:54;6.90;55.20
4306;DHT22;2166;49.926;8.608;2024-02-21T05:58:22;7.00;55.70
4306;DHT22;2166;49.926;8.608;2024-02-21T06:00:51;7.10;56.40
4306;DHT22;2166;49.926;8.608;2024-02-21T06:03:19;7.20;57.00
4306;DHT22;2166;49.926;8.608;2024-02-21T06:05:48;7.20;57.60
4306;DHT22;2166;49.926;8.608;2024-02-21T06:08:17;7.30;58.10
4306;DHT22;2166;49.926;8.608;2024-02-21T06:10:46;7.40;59.30
4306;DHT22;2166;49.926;8.608;2024-02-21T06:13:15;7.40;60.00
4306;DHT22;2166;49.926;8.608;2024-02-21T06:15:44;7.40;60.60
4306;DHT22;2166;49.926;8.608;2024-02-21T06:18:12;7.50;60.90
4306;DHT22;2166;49.926;8.608;2024-02-21T06:20:41;7.40;61.00
4306;DHT22;2166;49.926;8.608;2024-02-21T06:23:11;7.20;60.10
4306;DHT22;2166;49.926;8.608;2024-02-21T06:25:40;7.10;58.90
4306;DHT22;2166;49.926;8.608;2024-02-21T06:28:09;7.00;57.60
4306;DHT22;2166;49.926;8.608;2024-02-21T06:30:37;6.90;56.80
4306;DHT22;2166;49.926;8.608;2024-02-21T06:33:06;6.80;56.10
4306;DHT22;2166;49.926;8.608;2024-02-21T06:35:34;6.80;55.40
4306;DHT22;2166;49.926;8.608;2024-02-21T06:38:03;6.80;55.10
4306;DHT22;2166;49.926;8.608;2024-02-21T06:40:33;6.80;54.80
4306;DHT22;2166;49.926;8.608;2024-02-21T06:43:07;6.70;54.70
4306;DHT22;2166;49.926;8.608;2024-02-21T06:45:36;6.70;54.80
4306;DHT22;2166;49.926;8.608;2024-02-21T06:48:04;6.70;54.50
4306;DHT22;2166;49.926;8.608;2024-02-21T06:50:32;6.60;54.20
4306;DHT22;2166;49.926;8.608;2024-02-21T06:53:01;6.70;54.10
4306;DHT22;2166;49.926;8.608;2024-02-21T06:55:29;6.70;54.60
4306;DHT22;2166;49.926;8.608;2024-02-21T06:57:57;6.70;54.80
4306;DHT22;2166;49.926;8.608;2024-02-21T07:00:27;6.70;55.20
4306;DHT22;2166;49.926;8.608;2024-02-21T07:02:55;6.70;55.30
4306;DHT22;2166;49.926;8.608;2024-02-21T07:05:23;6.80;55.70
4306;DHT22;2166;49.926;8.608;2024-02-21T07:07:52;6.80;56.10
4306;DHT22;2166;49.926;8.608;2024-02-21T07:10:20;6.90;56.10
4306;DHT22;2166;49.926;8.608;2024-02-21T07:12:48;7.10;56.60
4306;DHT22;2166;49.926;8.608;2024-02-21T07:15:18;7.40;58.50
4306;DHT22;2166;49.926;8.608;2024-02-21T07:17:48;7.60;62.10
4306;DHT22;2166;49.926;8.608;2024-02-21T07:20:16;7.60;62.90
4306;DHT22;2166;49.926;8.608;2024-02-21T07:22:45;7.60;63.10
4306;DHT22;2166;49.926;8.608;2024-02-21T07:25:14;7.70;63.30
4306;DHT22;2166;49.926;8.608;2024-02-21T07:27:43;7.90;64.00
4306;DHT22;2166;49.926;8.608;2024-02-21T07:30:12;8.10;66.00
4306;DHT22;2166;49.926;8.608;2024-02-21T07:32:43;8.30;67.30
4306;DHT22;2166;49.926;8.608;2024-02-21T07:35:13;8.50;68.50
4306;DHT22;2166;49.926;8.608;2024-02-21T07:37:42;8.60;70.40
4306;DHT22;2166;49.926;8.608;2024-02-21T07:40:13;8.60;69.70
4306;DHT22;2166;49.926;8.608;2024-02-21T07:42:43;8.60;69.90
4306;DHT22;2166;49.926;8.608;2024-02-21T07:45:17;8.70;70.40
4306;DHT22;2166;49.926;8.608;2024-02-21T07:47:49;9.00;71.70
4306;DHT22;2166;49.926;8.608;2024-02-21T07:50:19;9.20;73.30
4306;DHT22;2166;49.926;8.608;2024-02-21T07:52:47;9.30;73.90
4306;DHT22;2166;49.926;8.608;2024-02-21T07:55:16;9.50;75.10
4306;DHT22;2166;49.926;8.608;2024-02-21T07:57:44;9.50;76.00
4306;DHT22;2166;49.926;8.608;2024-02-21T08:00:13;9.70;76.40
4306;DHT22;2166;49.926;8.608;2024-02-21T08:02:48;9.90;76.50
4306;DHT22;2166;49.926;8.608;2024-02-21T08:05:18;10.00;77.80
4306;DHT22;2166;49.926;8.608;2024-02-21T08:07:48;10.00;77.90
4306;DHT22;2166;49.926;8.608;2024-02-21T08:10:17;9.90;78.10
4306;DHT22;2166;49.926;8.608;2024-02-21T08:12:45;9.70;77.70
4306;DHT22;2166;49.926;8.608;2024-02-21T08:15:13;9.60;77.80
4306;DHT22;2166;49.926;8.608;2024-02-21T08:17:42;9.40;76.70
4306;DHT22;2166;49.926;8.608;2024-02-21T08:20:11;9.30;76.30
4306;DHT22;2166;49.926;8.608;2024-02-21T08:22:41;9.20;75.70
4306;DHT22;2166;49.926;8.608;2024-02-21T08:25:10;9.20;75.30
4306;DHT22;2166;49.926;8.608;2024-02-21T08:27:38;9.10;75.70
4306;DHT22;2166;49.926;8.608;2024-02-21T08:30:07;9.00;75.00
4306;DHT22;2166;49.926;8.608;2024-02-21T08:32:35;9.00;74.80
4306;DHT22;2166;49.926;8.608;2024-02-21T08:35:04;9.00;75.30
4306;DHT22;2166;49.926;8.608;2024-02-21T08:37:33;9.10;74.80
4306;DHT22;2166;49.926;8.608;2024-02-21T08:40:03;9.10;75.30
4306;DHT22;2166;49.926;8.608;2024-02-21T08:42:36;9.20;75.80
4306;DHT22;2166;49.926;8.608;2024-02-21T08:45:08;9.10;75.20
4306;DHT22;2166;49.926;8.608;2024-02-21T08:47:39;9.20;75.10
4306;DHT22;2166;49.926;8.608;2024-02-21T08:50:09;9.30;76.10
4306;DHT22;2166;49.926;8.608;2024-02-21T08:52:53;9.40;75.30
4306;DHT22;2166;49.926;8.608;2024-02-21T08:55:23;9.50;76.30
4306;DHT22;2166;49.926;8.608;2024-02-21T08:57:52;9.70;76.50
4306;DHT22;2166;49.926;8.608;2024-02-21T09:00:21;9.80;77.10
4306;DHT22;2166;49.926;8.608;2024-02-21T09:02:54;10.00;78.20
4306;DHT22;2166;49.926;8.608;2024-02-21T09:05:25;10.20;78.60
4306;DHT22;2166;49.926;8.608;2024-02-21T09:07:54;10.40;78.30
4306;DHT22;2166;49.926;8.608;2024-02-21T09:10:24;10.60;78.90
4306;DHT22;2166;49.926;8.608;2024-02-21T09:12:53;10.60;79.10
4306;DHT22;2166;49.926;8.608;2024-02-21T09:15:21;10.80;79.40
4306;DHT22;2166;49.926;8.608;2024-02-21T09:17:51;10.80;79.00
4306;DHT22;2166;49.926;8.608;2024-02-21T09:20:19;10.80;79.00
4306;DHT22;2166;49.926;8.608;2024-02-21T09:22:47;10.80;78.90
4306;DHT22;2166;49.926;8.608;2024-02-21T09:25:16;10.60;79.00
4306;DHT22;2166;49.926;8.608;2024-02-21T09:27:46;10.40;79.00
4306;DHT22;2166;49.926;8.608;2024-02-21T09:30:14;10.20;78.80
4306;DHT22;2166;49.926;8.608;2024-02-21T09:32:43;10.30;79.20
4306;DHT22;2166;49.926;8.608;2024-02-21T09:35:12;10.20;78.90
4306;DHT22;2166;49.926;8.608;2024-02-21T09:37:40;10.20;78.80
4306;DHT22;2166;49.926;8.608;2024-02-21T09:40:09;10.20;78.70
4306;DHT22;2166;49.926;8.608;2024-02-21T09:42:39;10.20;78.80
4306;DHT22;2166;49.926;8.608;2024-02-21T09:45:20;10.30;78.80
4306;DHT22;2166;49.926;8.608;2024-02-21T09:48:19;10.40;78.70
4306;DHT22;2166;49.926;8.608;2024-02-21T09:50:49;10.90;79.70
4306;DHT22;2166;49.926;8.608;2024-02-21T09:53:18;11.10;79.30
4306;DHT22;2166;49.926;8.608;2024-02-21T09:55:48;11.30;79.00
4306;DHT22;2166;49.926;8.608;2024-02-21T09:58:16;11.40;79.00
4306;DHT22;2166;49.926;8.608;2024-02-21T10:00:46;11.60;78.50
4306;DHT22;2166;49.926;8.608;2024-02-21T10:03:15;11.90;78.50
4306;DHT22;2166;49.926;8.608;2024-02-21T10:05:48;12.00;78.10
4306;DHT22;2166;49.926;8.608;2024-02-21T10:08:18;11.90;77.90
4306;DHT22;2166;49.926;8.608;2024-02-21T10:10:47;11.50;78.30
4306;DHT22;2166;49.926;8.608;2024-02-21T10:13:25;11.30;78.40
4306;DHT22;2166;49.926;8.608;2024-02-21T10:16:03;11.60;78.80
4306;DHT22;2166;49.926;8.608;2024-02-21T10:18:31;11.80;78.50
4306;DHT22;2166;49.926;8.608;2024-02-21T10:21:01;12.00;78.30
4306;DHT22;2166;49.926;8.608;2024-02-21T10:23:40;11.90;78.20
4306;DHT22;2166;49.926;8.608;2024-02-21T10:26:08;11.80;78.40
4306;DHT22;2166;49.926;8.608;2024-02-21T10:28:37;11.80;77.90
4306;DHT22;2166;49.926;8.608;2024-02-21T10:31:11;11.70;78.40
4306;DHT22;2166;49.926;8.608;2024-02-21T10:33:39;11.60;78.20
4306;DHT22;2166;49.926;8.608;2024-02-21T10:36:09;11.70;78.50
4306;DHT22;2166;49.926;8.608;2024-02-21T10:38:37;11.50;78.20
4306;DHT22;2166;49.926;8.608;2024-02-21T10:41:06;11.50;78.50
4306;DHT22;2166;49.926;8.608;2024-02-21T10:43:38;11.60;78.40
4306;DHT22;2166;49.926;8.608;2024-02-21T10:46:09;11.60;78.50
4306;DHT22;2166;49.926;8.608;2024-02-21T10:48:42;11.70;78.40
4306;DHT22;2166;49.926;8.608;2024-02-21T10:51:15;11.70;78.30
4306;DHT22;2166;49.926;8.608;2024-02-21T10:53:53;11.90;78.20
4306;DHT22;2166;49.926;8.608;2024-02-21T10:56:28;12.10;78.20
4306;DHT22;2166;49.926;8.608;2024-02-21T10:58:58;12.20;77.80
4306;DHT22;2166;49.926;8.608;2024-02-21T11:01:30;12.10;78.10
4306;DHT22;2166;49.926;8.608;2024-02-21T11:04:02;11.90;77.90
4306;DHT22;2166;49.926;8.608;2024-02-21T11:06:31;11.80;78.20
4306;DHT22;2166;49.926;8.608;2024-02-21T11:09:04;11.90;78.10
4306;DHT22;2166;49.926;8.608;2024-02-21T11:11:34;11.90;78.20
4306;DHT22;2166;49.926;8.608;2024-02-21T11:14:08;12.00;78.00
4306;DHT22;2166;49.926;8.608;2024-02-21T11:16:39;12.10;78.00
4306;DHT22;2166;49.926;8.608;2024-02-21T11:19:08;12.50;77.90
4306;DHT22;2166;49.926;8.608;2024-02-21T11:21:38;12.50;77.10
4306;DHT22;2166;49.926;8.608;2024-02-21T11:24:08;12.70;77.70
4306;DHT22;2166;49.926;8.608;2024-02-21T11:26:37;12.70;76.80
4306;DHT22;2166;49.926;8.608;2024-02-21T11:29:06;12.60;77.40
4306;DHT22;2166;49.926;8.608;2024-02-21T11:31:41;12.60;77.10
4306;DHT22;2166;49.926;8.608;2024-02-21T11:34:10;12.90;77.30
4306;DHT22;2166;49.926;8.608;2024-02-21T11:36:46;13.20;76.40
4306;DHT22;2166;49.926;8.608;2024-02-21T11:39:21;13.00;76.20
4306;DHT22;2166;49.926;8.608;2024-02-21T11:42:03;12.90;76.80
4306;DHT22;2166;49.926;8.608;2024-02-21T11:44:32;12.90;77.30
4306;DHT22;2166;49.926;8.608;2024-02-21T11:47:01;12.60;77.30
4306;DHT22;2166;49.926;8.608;2024-02-21T11:49:30;12.40;77.90
4306;DHT22;2166;49.926;8.608;2024-02-21T11:52:02;12.40;78.10
4306;DHT22;2166;49.926;8.608;2024-02-21T11:54:32;12.20;78.00
4306;DHT22;2166;49.926;8.608;2024-02-21T11:57:00;12.10;78.20
4306;DHT22;2166;49.926;8.608;2024-02-21T11:59:30;12.10;78.50
4306;DHT22;2166;49.926;8.608;2024-02-21T12:02:01;12.20;78.40
4306;DHT22;2166;49.926;8.608;2024-02-21T12:04:30;12.20;78.10
4306;DHT22;2166;49.926;8.608;2024-02-21T12:06:59;12.10;78.20
4306;DHT22;2166;49.926;8.608;2024-02-21T12:09:31;12.10;78.50
4306;DHT22;2166;49.926;8.608;2024-02-21T12:12:01;12.10;78.20
4306;DHT22;2166;49.926;8.608;2024-02-21T12:14:30;12.20;78.70
4306;DHT22;2166;49.926;8.608;2024-02-21T12:17:00;12.20;78.40
4306;DHT22;2166;49.926;8.608;2024-02-21T12:19:32;12.30;78.20
4306;DHT22;2166;49.926;8.608;2024-02-21T12:22:01;12.40;77.90
4306;DHT22;2166;49.926;8.608;2024-02-21T12:24:33;12.50;77.90
4306;DHT22;2166;49.926;8.608;2024-02-21T12:27:03;12.60;77.60
4306;DHT22;2166;49.926;8.608;2024-02-21T12:29:32;12.60;77.30
4306;DHT22;2166;49.926;8.608;2024-02-21T12:32:02;12.60;77.60
4306;DHT22;2166;49.926;8.608;2024-02-21T12:34:31;12.60;77.50
4306;DHT22;2166;49.926;8.608;2024-02-21T12:37:18;12.80;77.40
4306;DHT22;2166;49.926;8.608;2024-02-21T12:39:48;13.00;76.90
4306;DHT22;2166;49.926;8.608;2024-02-21T12:42:16;13.20;77.30
4306;DHT22;2166;49.926;8.608;2024-02-21T12:44:44;13.30;76.50
4306;DHT22;2166;49.926;8.608;2024-02-21T12:47:14;13.60;76.60
4306;DHT22;2166;49.926;8.608;2024-02-21T12:49:43;13.40;75.20
4306;DHT22;2166;49.926;8.608;2024-02-21T12:52:12;13.20;76.10
4306;DHT22;2166;49.926;8.608;2024-02-21T12:54:41;13.20;76.80
4306;DHT22;2166;49.926;8.608;2024-02-21T12:57:10;12.90;76.60
4306;DHT22;2166;49.926;8.608;2024-02-21T12:59:38;12.60;77.40
4306;DHT22;2166;49.926;8.608;2024-02-21T13:02:07;12.40;77.50
4306;DHT22;2166;49.926;8.608;2024-02-21T13:04:38;12.20;77.70
4306;DHT22;2166;49.926;8.608;2024-02-21T13:07:08;12.10;78.00
4306;DHT22;2166;49.926;8.608;2024-02-21T13:09:36;11.90;78.30
4306;DHT22;2166;49.926;8.608;2024-02-21T13:12:05;11.90;78.50
4306;DHT22;2166;49.926;8.608;2024-02-21T13:14:34;12.10;78.30
4306;DHT22;2166;49.926;8.608;2024-02-21T13:17:05;12.20;78.30
4306;DHT22;2166;49.926;8.608;2024-02-21T13:19:34;12.10;78.20
4306;DHT22;2166;49.926;8.608;2024-02-21T13:22:04;12.10;78.50
4306;DHT22;2166;49.926;8.608;2024-02-21T13:24:32;11.90;78.30
4306;DHT22;2166;49.926;8.608;2024-02-21T13:27:01;12.00;78.70
4306;DHT22;2166;49.926;8.608;2024-02-21T13:29:30;11.90;78.70
4306;DHT22;2166;49.926;8.608;2024-02-21T13:31:59;11.90;78.40
4306;DHT22;2166;49.926;8.608;2024-02-21T13:34:27;12.00;78.50
4306;DHT22;2166;49.926;8.608;2024-02-21T13:36:55;12.00;78.40
4306;DHT22;2166;49.926;8.608;2024-02-21T13:39:25;12.00;78.50
4306;DHT22;2166;49.926;8.608;2024-02-21T13:41:53;12.10;78.40
4306;DHT22;2166;49.926;8.608;2024-02-21T13:44:21;12.20;78.20
4306;DHT22;2166;49.926;8.608;2024-02-21T13:46:49;12.30;78.50
4306;DHT22;2166;49.926;8.608;2024-02-21T13:49:18;12.40;78.10
4306;DHT22;2166;49.926;8.608;2024-02-21T13:51:46;12.50;77.90
4306;DHT22;2166;49.926;8.608;2024-02-21T13:54:15;12.50;77.90
4306;DHT22;2166;49.926;8.608;2024-02-21T13:56:47;12.50;77.90
4306;DHT22;2166;49.926;8.608;2024-02-21T13:59:15;12.60;77.60
4306;DHT22;2166;49.926;8.608;2024-02-21T14:01:45;12.50;77.40
4306;DHT22;2166;49.926;8.608;2024-02-21T14:04:13;12.40;77.60
4306;DHT22;2166;49.926;8.608;2024-02-21T14:06:41;12.20;78.00
4306;DHT22;2166;49.926;8.608;2024-02-21T14:09:11;12.30;78.20
4306;DHT22;2166;49.926;8.608;2024-02-21T14:11:39;12.20;77.90
4306;DHT22;2166;49.926;8.608;2024-02-21T14:14:10;12.30;77.90
4306;DHT22;2166;49.926;8.608;2024-02-21T14:16:38;12.40;77.90
4306;DHT22;2166;49.926;8.608;2024-02-21T14:19:07;12.50;77.90
4306;DHT22;2166;49.926;8.608;2024-02-21T14:21:36;12.40;77.60
4306;DHT22;2166;49.926;8.608;2024-02-21T14:24:05;12.40;77.60
4306;DHT22;2166;49.926;8.608;2024-02-21T14:26:33;12.50;77.10
4306;DHT22;2166;49.926;8.608;2024-02-21T14:29:02;12.50;77.20
4306;DHT22;2166;49.926;8.608;2024-02-21T14:31:32;12.50;77.40
4306;DHT22;2166;49.926;8.608;2024-02-21T14:34:01;12.40;77.40
4306;DHT22;2166;49.926;8.608;2024-02-21T14:36:30;12.30;77.60
4306;DHT22;2166;49.926;8.608;2024-02-21T14:39:00;12.30;77.70
4306;DHT22;2166;49.926;8.608;2024-02-21T14:41:28;12.20;78.00
4306;DHT22;2166;49.926;8.608;2024-02-21T14:43:56;12.20;77.70
4306;DHT22;2166;49.926;8.608;2024-02-21T14:46:32;12.20;77.70
4306;DHT22;2166;49.926;8.608;2024-02-21T14:49:00;12.20;77.70
4306;DHT22;2166;49.926;8.608;2024-02-21T14:51:29;12.20;77.70
4306;DHT22;2166;49.926;8.608;2024-02-21T14:53:58;12.30;77.90
4306;DHT22;2166;49.926;8.608;2024-02-21T14:56:26;12.10;77.80
4306;DHT22;2166;49.926;8.608;2024-02-21T14:58:55;12.00;77.90
4306;DHT22;2166;49.926;8.608;2024-02-21T15:01:37;11.90;77.80
4306;DHT22;2166;49.926;8.608;2024-02-21T15:04:06;11.90;78.00
4306;DHT22;2166;49.926;8.608;2024-02-21T15:06:35;11.80;77.90
4306;DHT22;2166;49.926;8.608;2024-02-21T15:09:05;11.70;78.20
4306;DHT22;2166;49.926;8.608;2024-02-21T15:11:35;11.50;78.20
4306;DHT22;2166;49.926;8.608;2024-02-21T15:14:03;11.40;78.50
4306;DHT22;2166;49.926;8.608;2024-02-21T15:16:32;11.40;78.50
4306;DHT22;2166;49.926;8.608;2024-02-21T15:19:02;11.30;78.50
4306;DHT22;2166;49.926;8.608;2024-02-21T15:21:31;11.30;78.60
4306;DHT22;2166;49.926;8.608;2024-02-21T15:23:59;11.30;78.90
4306;DHT22;2166;49.926;8.608;2024-02-21T15:26:29;11.20;78.90
4306;DHT22;2166;49.926;8.608;2024-02-21T15:28:57;11.10;78.70
4306;DHT22;2166;49.926;8.608;2024-02-21T15:31:26;11.10;78.70
4306;DHT22;2166;49.926;8.608;2024-02-21T15:33:54;11.00;78.90
4306;DHT22;2166;49.926;8.608;2024-02-21T15:36:24;11.00;78.70
4306;DHT22;2166;49.926;8.608;2024-02-21T15:38:55;11.00;78.80
4306;DHT22;2166;49.926;8.608;2024-02-21T15:41:26;10.90;78.90
4306;DHT22;2166;49.926;8.608;2024-02-21T15:43:55;10.90;79.00
4306;DHT22;2166;49.926;8.608;2024-02-21T15:46:26;10.90;79.00
4306;DHT22;2166;49.926;8.608;2024-02-21T15:48:54;10.90;79.00
4306;DHT22;2166;49.926;8.608;2024-02-21T15:51:24;10.80;78.90
4306;DHT22;2166;49.926;8.608;2024-02-21T15:53:52;10.80;78.90
4306;DHT22;2166;49.926;8.608;2024-02-21T15:56:20;10.70;78.80
4306;DHT22;2166;49.926;8.608;2024-02-21T15:58:50;10.60;79.10
4306;DHT22;2166;49.926;8.608;2024-02-21T16:01:18;10.60;79.00
4306;DHT22;2166;49.926;8.608;2024-02-21T16:03:47;10.60;79.00
4306;DHT22;2166;49.926;8.608;2024-02-21T16:06:15;10.50;79.10
4306;DHT22;2166;49.926;8.608;2024-02-21T16:08:45;10.50;78.90
4306;DHT22;2166;49.926;8.608;2024-02-21T16:11:17;10.50;79.20
4306;DHT22;2166;49.926;8.608;2024-02-21T16:13:45;10.40;79.00
4306;DHT22;2166;49.926;8.608;2024-02-21T16:16:15;10.40;79.00
4306;DHT22;2166;49.926;8.608;2024-02-21T16:18:43;10.40;79.00
4306;DHT22;2166;49.926;8.608;2024-02-21T16:21:13;10.40;79.10
4306;DHT22;2166;49.926;8.608;2024-02-21T16:23:42;10.40;79.20